createdAt,value
2023-04-16T00:00:12.591Z,70.30
2023-04-16T00:02:41.523Z,69.70
2023-04-16T00:05:10.455Z,69.27
2023-04-16T00:07:39.858Z,69.87
2023-04-16T00:10:09.211Z,69.60
2023-04-16T00:12:37.601Z,69.80
2023-04-16T00:15:06.156Z,70.20
2023-04-16T00:17:34.280Z,71.70
2023-04-16T00:20:02.349Z,70.57
2023-04-16T00:22:30.530Z,74.83
2023-04-16T00:24:59.942Z,73.17
2023-04-16T00:27:28.030Z,74.60
2023-04-16T00:29:56.031Z,73.53
2023-04-16T00:32:24.681Z,75.07
2023-04-16T00:34:52.728Z,77.47
2023-04-16T00:37:20.797Z,77.37
2023-04-16T00:39:48.803Z,78.00
2023-04-16T00:42:18.405Z,80.53
2023-04-16T00:44:46.473Z,82.23
2023-04-16T00:47:14.592Z,81.47
2023-04-16T00:49:42.765Z,80.10
2023-04-16T00:52:13.009Z,84.17
2023-04-16T00:54:42.119Z,83.13
2023-04-16T00:57:11.197Z,85.73
2023-04-16T00:59:41.145Z,85.57
2023-04-16T01:02:09.300Z,85.47
2023-04-16T01:04:37.566Z,84.97
2023-04-16T01:07:05.791Z,84.37
2023-04-16T01:09:33.842Z,85.63
2023-04-16T01:12:04.485Z,85.93
2023-04-16T01:14:36.437Z,86.20
2023-04-16T01:17:06.242Z,85.10
2023-04-16T01:19:36.383Z,86.23
2023-04-16T01:22:06.527Z,87.03
2023-04-16T01:24:36.562Z,86.37
2023-04-16T01:27:04.639Z,85.93
2023-04-16T01:29:32.789Z,83.90
2023-04-16T01:32:02.080Z,82.57
2023-04-16T01:34:35.286Z,83.23
2023-04-16T01:37:06.484Z,82.97
2023-04-16T01:39:34.517Z,81.63
2023-04-16T01:42:03.140Z,80.97
2023-04-16T01:44:31.910Z,79.67
2023-04-16T01:46:59.930Z,75.07
2023-04-16T01:49:28.510Z,74.40
2023-04-16T01:51:56.783Z,71.63
2023-04-16T01:54:26.318Z,72.10
2023-04-16T01:56:54.378Z,69.90
2023-04-16T01:59:22.459Z,71.47
2023-04-16T02:01:50.653Z,70.00
2023-04-16T02:04:18.801Z,72.40
2023-04-16T02:06:46.874Z,72.33
2023-04-16T02:09:15.678Z,67.80
2023-04-16T02:11:45.628Z,68.07
2023-04-16T02:14:13.767Z,72.70
2023-04-16T02:16:41.888Z,71.33
2023-04-16T02:19:20.474Z,72.33
2023-04-16T02:21:49.103Z,73.90
2023-04-16T02:24:17.094Z,73.50
2023-04-16T02:26:46.688Z,74.73
2023-04-16T02:29:17.899Z,75.17
2023-04-16T02:31:53.575Z,75.50
2023-04-16T02:34:22.274Z,76.03
2023-04-16T02:36:50.434Z,76.40
2023-04-16T02:39:18.616Z,77.93
2023-04-16T02:41:48.023Z,78.37
2023-04-16T02:44:16.156Z,78.97
2023-04-16T02:46:44.177Z,79.23
2023-04-16T02:49:12.363Z,79.93
2023-04-16T02:51:40.411Z,81.53
2023-04-16T02:54:08.657Z,81.87
2023-04-16T02:56:36.669Z,81.10
2023-04-16T02:59:06.164Z,83.13
2023-04-16T03:01:34.310Z,83.10
2023-04-16T03:04:02.362Z,82.87
2023-04-16T03:06:31.486Z,85.23
2023-04-16T03:08:59.490Z,83.97
2023-04-16T03:11:27.648Z,83.37
2023-04-16T03:13:55.669Z,85.33
2023-04-16T03:16:25.231Z,84.07
2023-04-16T03:18:53.382Z,85.70
2023-04-16T03:21:21.507Z,84.63
2023-04-16T03:23:49.550Z,85.40
2023-04-16T03:26:17.505Z,85.13
2023-04-16T03:28:45.999Z,84.27
2023-04-16T03:31:14.575Z,84.80
2023-04-16T03:33:44.107Z,85.00
2023-04-16T03:36:12.558Z,84.70
2023-04-16T03:38:40.581Z,85.77
2023-04-16T03:41:08.838Z,86.80
2023-04-16T03:43:37.080Z,86.53
2023-04-16T03:46:06.585Z,84.50
2023-04-16T03:48:34.824Z,85.57
2023-04-16T03:51:04.387Z,86.03
2023-04-16T03:53:32.947Z,87.63
2023-04-16T03:56:00.886Z,85.90
2023-04-16T03:58:29.319Z,86.90
2023-04-16T04:00:57.956Z,86.37
2023-04-16T04:03:26.926Z,85.73
2023-04-16T04:05:56.343Z,85.13
2023-04-16T04:08:32.208Z,85.23
2023-04-16T04:11:00.284Z,84.27
2023-04-16T04:13:29.070Z,85.77
2023-04-16T04:15:57.481Z,84.23
2023-04-16T04:18:25.731Z,89.20
2023-04-16T04:20:54.583Z,86.47
2023-04-16T04:23:26.377Z,82.33
2023-04-16T04:25:55.908Z,82.30
2023-04-16T04:28:23.889Z,83.57
2023-04-16T04:30:52.062Z,85.70
2023-04-16T04:33:20.577Z,85.10
2023-04-16T04:35:49.311Z,85.43
2023-04-16T04:38:19.997Z,85.17
2023-04-16T04:40:48.963Z,86.03
2023-04-16T04:43:20.105Z,83.13
2023-04-16T04:45:49.472Z,78.10
2023-04-16T04:48:18.261Z,75.60
2023-04-16T04:50:47.866Z,78.00
2023-04-16T04:53:15.978Z,75.40
2023-04-16T04:55:44.421Z,75.10
2023-04-16T04:58:12.685Z,72.87
2023-04-16T05:00:44.037Z,69.90
2023-04-16T05:03:13.509Z,70.40
2023-04-16T05:05:42.086Z,67.00
2023-04-16T05:08:10.276Z,63.03
2023-04-16T05:10:38.275Z,62.97
2023-04-16T05:13:06.421Z,61.73
2023-04-16T05:15:34.437Z,63.90
2023-04-16T05:18:03.992Z,69.23
2023-04-16T05:20:32.132Z,72.73
2023-04-16T05:23:00.172Z,76.93
2023-04-16T05:25:28.330Z,76.30
2023-04-16T05:27:56.308Z,77.87
2023-04-16T05:30:24.416Z,75.27
2023-04-16T05:32:52.830Z,74.53
2023-04-16T05:35:22.623Z,71.53
2023-04-16T05:37:50.635Z,71.33
2023-04-16T05:40:19.154Z,69.50
2023-04-16T05:42:47.199Z,69.17
2023-04-16T05:45:15.230Z,65.03
2023-04-16T05:47:43.299Z,67.60
2023-04-16T05:50:12.298Z,68.57
2023-04-16T05:52:41.751Z,67.10
2023-04-16T05:55:10.605Z,69.00
2023-04-16T05:57:38.632Z,69.63
2023-04-16T06:00:08.609Z,71.43
2023-04-16T06:02:43.085Z,77.00
2023-04-16T06:05:11.367Z,76.53
2023-04-16T06:07:39.436Z,78.90
2023-04-16T06:10:09.910Z,76.13
2023-04-16T06:12:38.121Z,75.87
2023-04-16T06:15:07.134Z,75.87
2023-04-16T06:17:35.364Z,79.10
2023-04-16T06:20:03.468Z,80.47
2023-04-16T06:22:31.639Z,78.60
2023-04-16T06:24:59.716Z,79.27
2023-04-16T06:27:29.273Z,77.33
2023-04-16T06:29:58.623Z,81.17
2023-04-16T06:32:26.750Z,76.97
2023-04-16T06:34:54.941Z,77.60
2023-04-16T06:37:23.031Z,75.97
2023-04-16T06:39:51.211Z,77.33
2023-04-16T06:42:19.347Z,76.37
2023-04-16T06:44:49.202Z,72.67
2023-04-16T06:47:17.613Z,72.20
2023-04-16T06:49:45.687Z,73.90
2023-04-16T06:52:13.869Z,69.30
2023-04-16T06:54:41.945Z,69.60
2023-04-16T06:57:10.005Z,66.60
2023-04-16T06:59:38.108Z,64.47
2023-04-16T07:02:09.184Z,62.50
2023-04-16T07:04:37.337Z,60.03
2023-04-16T07:07:05.457Z,63.27
2023-04-16T07:09:33.599Z,61.57
2023-04-16T07:12:01.782Z,62.00
2023-04-16T07:14:29.837Z,60.40
2023-04-16T07:16:57.999Z,58.70
2023-04-16T07:19:30.627Z,56.57
2023-04-16T07:21:58.740Z,58.37
2023-04-16T07:24:26.827Z,57.80
2023-04-16T07:26:55.021Z,58.07
2023-04-16T07:29:22.972Z,60.93
2023-04-16T07:31:51.192Z,60.00
2023-04-16T07:34:19.217Z,59.20
2023-04-16T07:36:48.680Z,58.47
2023-04-16T07:39:16.697Z,60.00
2023-04-16T07:41:44.860Z,58.40
2023-04-16T07:44:12.851Z,58.40
2023-04-16T07:46:46.785Z,57.73
2023-04-16T07:49:15.342Z,58.23
2023-04-16T07:51:43.469Z,56.43
2023-04-16T07:54:12.976Z,55.77
2023-04-16T07:56:41.095Z,56.60
2023-04-16T07:59:22.119Z,52.57
2023-04-16T08:01:51.702Z,53.00
2023-04-16T08:04:25.076Z,51.37
2023-04-16T08:06:54.281Z,48.30
2023-04-16T08:09:25.157Z,46.07
2023-04-16T08:11:53.260Z,45.13
2023-04-16T08:14:21.653Z,38.10
2023-04-16T08:16:49.738Z,36.17
2023-04-16T08:19:17.801Z,33.37
2023-04-16T08:21:45.943Z,30.87
2023-04-16T08:24:14.098Z,31.37
2023-04-16T08:26:43.536Z,28.00
2023-04-16T08:29:11.636Z,25.27
2023-04-16T08:31:40.071Z,24.13
2023-04-16T08:34:08.159Z,22.47
2023-04-16T08:36:36.258Z,21.30
2023-04-16T08:39:04.469Z,20.73
2023-04-16T08:41:35.498Z,18.07
2023-04-16T08:44:09.425Z,17.83
2023-04-16T08:46:39.217Z,18.57
2023-04-16T08:49:08.998Z,18.30
2023-04-16T08:51:37.907Z,15.60
2023-04-16T08:54:09.762Z,13.67
2023-04-16T08:56:38.804Z,13.73
2023-04-16T08:59:10.874Z,13.73
2023-04-16T09:01:41.947Z,12.27
2023-04-16T09:04:10.847Z,12.47
2023-04-16T09:06:41.461Z,13.70
2023-04-16T09:09:10.571Z,11.73
2023-04-16T09:11:40.124Z,11.80
2023-04-16T09:14:11.896Z,11.90
2023-04-16T09:16:41.114Z,11.30
2023-04-16T09:19:09.467Z,10.23
2023-04-16T09:21:38.300Z,9.73
2023-04-16T09:24:06.737Z,10.07
2023-04-16T09:26:35.655Z,9.17
2023-04-16T09:29:04.157Z,9.05
2023-04-16T09:31:33.679Z,6.53
2023-04-16T09:34:03.944Z,7.10
2023-04-16T09:36:32.596Z,5.50
2023-04-16T09:39:01.118Z,6.03
2023-04-16T09:41:30.614Z,6.07
2023-04-16T09:44:00.138Z,5.97
2023-04-16T09:46:35.050Z,5.50
2023-04-16T09:49:07.311Z,6.32
2023-04-16T09:51:38.530Z,5.45
2023-04-16T09:54:06.917Z,4.47
2023-04-16T09:56:35.388Z,3.97
2023-04-16T09:59:03.790Z,4.35
2023-04-16T10:01:33.339Z,4.03
2023-04-16T10:04:01.592Z,4.00
2023-04-16T10:06:31.264Z,3.92
2023-04-16T10:08:59.416Z,3.65
2023-04-16T10:11:27.431Z,4.28
2023-04-16T10:13:55.481Z,4.05
2023-04-16T10:16:24.170Z,3.55
2023-04-16T10:18:54.859Z,3.05
2023-04-16T10:21:23.265Z,3.25
2023-04-16T10:23:53.082Z,4.82
2023-04-16T10:26:22.796Z,6.15
2023-04-16T10:28:51.422Z,6.22
2023-04-16T10:31:19.845Z,4.93
2023-04-16T10:33:47.992Z,4.90
2023-04-16T10:36:18.811Z,5.18
2023-04-16T10:38:48.329Z,4.82
2023-04-16T10:41:16.757Z,5.40
2023-04-16T10:43:47.166Z,5.00
2023-04-16T10:46:23.823Z,4.85
2023-04-16T10:48:54.712Z,4.97
2023-04-16T10:51:31.741Z,4.35
2023-04-16T10:54:04.985Z,4.55
2023-04-16T10:56:34.993Z,4.55
2023-04-16T10:59:06.099Z,4.55
2023-04-16T11:01:36.203Z,4.30
2023-04-16T11:04:29.646Z,4.85
2023-04-16T11:07:07.572Z,4.40
2023-04-16T11:09:56.292Z,4.50
2023-04-16T11:12:27.383Z,4.35
2023-04-16T11:14:57.324Z,4.00
2023-04-16T11:17:30.523Z,4.28
2023-04-16T11:19:58.608Z,4.43
2023-04-16T11:22:28.380Z,3.72
2023-04-16T11:24:57.673Z,4.25
2023-04-16T11:27:26.476Z,4.30
2023-04-16T11:30:01.993Z,3.65
2023-04-16T11:32:33.472Z,4.20
2023-04-16T11:35:03.950Z,4.50
2023-04-16T11:37:38.142Z,4.10
2023-04-16T11:40:08.434Z,4.03
2023-04-16T11:42:37.958Z,4.20
2023-04-16T11:45:06.734Z,4.32
2023-04-16T11:47:44.722Z,4.35
2023-04-16T11:50:20.960Z,4.18
2023-04-16T11:52:51.364Z,3.72
2023-04-16T11:55:20.189Z,5.20
2023-04-16T11:57:48.639Z,6.68
2023-04-16T12:00:17.779Z,5.55
2023-04-16T12:02:47.341Z,5.97
2023-04-16T12:05:30.416Z,5.13
2023-04-16T12:08:01.626Z,5.00
2023-04-16T12:10:30.755Z,4.38
2023-04-16T12:13:11.829Z,4.78
2023-04-16T12:15:47.839Z,4.70
2023-04-16T12:18:17.044Z,5.38
2023-04-16T12:20:46.681Z,5.50
2023-04-16T12:23:26.352Z,4.95
2023-04-16T12:25:54.518Z,5.88
2023-04-16T12:28:31.304Z,5.15
2023-04-16T12:30:59.476Z,4.97
2023-04-16T12:33:27.535Z,4.82
2023-04-16T12:35:55.901Z,6.97
2023-04-16T12:38:25.690Z,5.70
2023-04-16T12:40:57.162Z,6.43
2023-04-16T12:43:26.383Z,5.60
2023-04-16T12:45:54.560Z,5.15
2023-04-16T12:48:22.716Z,5.35
2023-04-16T12:50:50.811Z,5.85
2023-04-16T12:53:19.064Z,5.00
2023-04-16T12:55:48.476Z,6.10
2023-04-16T12:58:16.552Z,5.53
2023-04-16T13:00:44.582Z,5.53
2023-04-16T13:03:12.765Z,4.80
2023-04-16T13:05:41.823Z,5.22
2023-04-16T13:08:09.871Z,5.85
2023-04-16T13:10:38.201Z,4.82
2023-04-16T13:13:07.841Z,4.80
2023-04-16T13:15:36.081Z,5.13
2023-04-16T13:18:04.154Z,5.13
2023-04-16T13:20:32.260Z,5.07
2023-04-16T13:23:00.307Z,4.53
2023-04-16T13:25:29.681Z,5.20
2023-04-16T13:27:57.757Z,4.82
2023-04-16T13:30:29.381Z,4.45
2023-04-16T13:32:57.545Z,5.22
2023-04-16T13:35:25.739Z,4.00
2023-04-16T13:37:53.807Z,4.30
2023-04-16T13:40:21.994Z,4.43
2023-04-16T13:42:50.087Z,5.00
2023-04-16T13:45:20.384Z,4.32
2023-04-16T13:47:50.007Z,4.22
2023-04-16T13:50:18.198Z,4.13
2023-04-16T13:52:46.380Z,4.40
2023-04-16T13:55:17.963Z,4.70
2023-04-16T13:57:47.340Z,4.10
2023-04-16T14:00:16.820Z,4.53
2023-04-16T14:02:46.149Z,4.40
2023-04-16T14:05:15.925Z,3.80
2023-04-16T14:07:44.201Z,4.50
2023-04-16T14:10:12.538Z,4.40
2023-04-16T14:12:40.753Z,4.65
2023-04-16T14:15:10.420Z,4.35
2023-04-16T14:17:38.550Z,4.03
2023-04-16T14:20:07.655Z,6.53
2023-04-16T14:22:37.041Z,4.80
2023-04-16T14:25:05.903Z,4.30
2023-04-16T14:27:34.288Z,4.55
2023-04-16T14:30:02.556Z,4.40
2023-04-16T14:32:30.702Z,5.38
2023-04-16T14:34:58.783Z,4.50
2023-04-16T14:37:27.474Z,4.43
2023-04-16T14:39:56.966Z,4.78
2023-04-16T14:42:25.020Z,4.28
2023-04-16T14:44:58.164Z,4.90
2023-04-16T14:47:28.709Z,4.55
2023-04-16T14:49:57.978Z,4.50
2023-04-16T14:52:28.809Z,4.78
2023-04-16T14:55:01.192Z,4.95
2023-04-16T14:57:29.430Z,4.95
2023-04-16T15:00:01.247Z,4.38
2023-04-16T15:02:31.338Z,4.70
2023-04-16T15:05:01.561Z,4.95
2023-04-16T15:07:31.568Z,4.40
2023-04-16T15:10:03.245Z,4.97
2023-04-16T15:12:31.537Z,5.95
2023-04-16T15:18:12.960Z,5.20
2023-04-16T15:20:46.872Z,5.05
2023-04-16T15:23:19.715Z,6.63
2023-04-16T15:25:50.380Z,13.05
2023-04-16T15:28:19.181Z,11.75
2023-04-16T15:30:47.976Z,12.80
2023-04-16T15:33:18.458Z,8.02
2023-04-16T15:35:51.258Z,5.97
2023-04-16T15:38:21.115Z,6.80
2023-04-16T15:40:51.813Z,6.70
2023-04-16T15:43:20.905Z,6.93
2023-04-16T15:45:49.558Z,7.13
2023-04-16T15:48:18.282Z,6.65
2023-04-16T15:50:46.919Z,6.80
2023-04-16T15:53:15.613Z,6.90
2023-04-16T15:55:43.798Z,7.13
2023-04-16T15:58:13.333Z,6.53
2023-04-16T16:00:41.743Z,6.95
2023-04-16T16:03:10.597Z,6.97
2023-04-16T16:05:44.152Z,7.20
2023-04-16T16:12:18.749Z,7.57
2023-04-16T16:14:54.448Z,7.20
2023-04-16T16:17:23.848Z,8.02
2023-04-16T16:19:52.460Z,8.15
2023-04-16T16:22:23.673Z,19.85
2023-04-16T16:24:52.135Z,6.95
2023-04-16T16:27:20.797Z,7.78
2023-04-16T16:29:50.335Z,7.50
2023-04-16T16:32:18.346Z,7.47
2023-04-16T16:34:46.444Z,7.28
2023-04-16T16:37:14.450Z,7.28
2023-04-16T16:39:42.464Z,8.13
2023-04-16T16:42:10.785Z,8.57
2023-04-16T16:44:38.917Z,8.40
2023-04-16T16:47:08.488Z,7.90
2023-04-16T16:49:36.545Z,8.82
2023-04-16T16:52:04.920Z,9.00
2023-04-16T16:54:33.017Z,9.10
2023-04-16T16:57:02.431Z,9.50
2023-04-16T16:59:30.629Z,10.32
2023-04-16T17:01:58.781Z,9.90
2023-04-16T17:04:28.271Z,9.27
2023-04-16T17:06:56.357Z,9.65
2023-04-16T17:09:24.467Z,10.68
2023-04-16T17:11:52.536Z,10.10
2023-04-16T17:14:20.565Z,9.60
2023-04-16T17:16:50.019Z,10.07
2023-04-16T17:19:18.335Z,11.63
2023-04-16T17:21:47.842Z,11.00
2023-04-16T17:24:15.925Z,9.50
2023-04-16T17:26:44.033Z,10.13
2023-04-16T17:29:12.060Z,11.07
2023-04-16T17:31:40.338Z,11.15
2023-04-16T17:34:08.657Z,12.90
2023-04-16T17:36:36.957Z,12.13
2023-04-16T17:39:06.490Z,12.02
2023-04-16T17:41:34.498Z,11.90
2023-04-16T17:44:02.636Z,12.38
2023-04-16T17:46:30.960Z,12.20
2023-04-16T17:48:59.058Z,11.63
2023-04-16T17:51:27.435Z,12.27
2023-04-16T17:53:55.704Z,12.93
2023-04-16T17:56:25.053Z,13.03
2023-04-16T17:58:53.083Z,13.13
2023-04-16T18:01:21.255Z,14.10
2023-04-16T18:03:49.468Z,13.63
2023-04-16T18:06:17.723Z,12.90
2023-04-16T18:08:45.686Z,16.27
2023-04-16T18:11:13.827Z,14.43
2023-04-16T18:13:43.660Z,15.93
2023-04-16T18:16:16.656Z,15.77
2023-04-16T18:18:45.228Z,16.57
2023-04-16T18:21:13.266Z,16.93
2023-04-16T18:23:41.411Z,15.87
2023-04-16T18:26:10.329Z,16.90
2023-04-16T18:28:39.407Z,16.20
2023-04-16T18:31:08.908Z,16.53
2023-04-16T18:36:08.385Z,15.87
2023-04-16T18:38:43.624Z,17.37
2023-04-16T18:41:18.519Z,16.07
2023-04-16T18:43:46.901Z,15.57
2023-04-16T18:46:17.133Z,15.67
2023-04-16T18:48:45.615Z,16.43
2023-04-16T18:51:15.921Z,16.60
2023-04-16T18:53:45.786Z,16.80
2023-04-16T18:56:14.071Z,17.03
2023-04-16T18:58:42.175Z,15.70
2023-04-16T19:01:13.010Z,16.10
2023-04-16T19:03:42.581Z,16.07
2023-04-16T19:06:10.673Z,16.90
2023-04-16T19:08:38.762Z,16.07
2023-04-16T19:11:06.791Z,16.37
2023-04-16T19:13:34.914Z,16.37
2023-04-16T19:16:05.022Z,16.63
2023-04-16T19:18:33.228Z,16.93
2023-04-16T19:21:02.920Z,17.33
2023-04-16T19:23:31.071Z,17.30
2023-04-16T19:25:59.282Z,16.13
2023-04-16T19:28:27.530Z,16.33
2023-04-16T19:30:56.515Z,16.50
2023-04-16T19:33:24.588Z,16.10
2023-04-16T19:35:52.566Z,16.60
2023-04-16T19:38:22.112Z,16.67
2023-04-16T19:40:50.332Z,16.57
2023-04-16T19:43:18.445Z,17.03
2023-04-16T19:45:47.517Z,16.80
2023-04-16T19:48:15.686Z,15.97
2023-04-16T19:50:43.998Z,16.50
2023-04-16T19:53:12.708Z,17.20
2023-04-16T19:55:42.656Z,16.67
2023-04-16T19:58:10.923Z,17.00
2023-04-16T20:00:40.868Z,17.37
2023-04-16T20:03:09.160Z,16.93
2023-04-16T20:05:37.217Z,17.47
2023-04-16T20:08:05.590Z,17.30
2023-04-16T20:10:33.699Z,17.73
2023-04-16T20:13:03.095Z,18.30
2023-04-16T20:15:31.190Z,18.37
2023-04-16T20:17:59.230Z,19.53
2023-04-16T20:20:27.517Z,20.10
2023-04-16T20:22:55.769Z,21.80
2023-04-16T20:25:26.261Z,22.83
2023-04-16T20:27:54.484Z,23.33
2023-04-16T20:30:28.910Z,23.57
2023-04-16T20:32:57.075Z,22.67
2023-04-16T20:35:25.383Z,23.80
2023-04-16T20:37:53.463Z,24.60
2023-04-16T20:40:24.024Z,23.10
2023-04-16T20:42:52.255Z,24.33
2023-04-16T20:45:21.082Z,24.30
2023-04-16T20:47:51.125Z,24.73
2023-04-16T20:50:19.413Z,23.37
2023-04-16T20:52:47.453Z,23.27
2023-04-16T20:55:15.602Z,22.43
2023-04-16T20:57:43.689Z,22.97
2023-04-16T21:00:12.716Z,23.17
2023-04-16T21:02:40.925Z,22.63
2023-04-16T21:05:14.184Z,23.53
2023-04-16T21:07:42.605Z,24.20
2023-04-16T21:10:11.647Z,23.73
2023-04-16T21:12:39.768Z,22.83
2023-04-16T21:15:08.774Z,23.80
2023-04-16T21:17:36.896Z,24.97
2023-04-16T21:20:07.015Z,24.70
2023-04-16T21:22:36.568Z,24.33
2023-04-16T21:25:04.940Z,23.60
2023-04-16T21:27:33.052Z,25.23
2023-04-16T21:30:01.172Z,25.27
2023-04-16T21:32:29.381Z,25.93
2023-04-16T21:34:57.394Z,26.10
2023-04-16T21:37:25.490Z,26.87
2023-04-16T21:39:54.856Z,27.17
2023-04-16T21:42:22.937Z,27.87
2023-04-16T21:44:50.935Z,27.57
2023-04-16T21:47:19.299Z,29.37
2023-04-16T21:49:47.332Z,29.27
2023-04-16T21:52:18.364Z,30.03
2023-04-16T21:54:46.742Z,30.83
2023-04-16T21:57:16.224Z,30.83
2023-04-16T21:59:44.298Z,31.43
2023-04-16T22:02:12.624Z,32.90
2023-04-16T22:04:40.685Z,32.67
2023-04-16T22:07:09.934Z,32.03
2023-04-16T22:09:38.023Z,33.83
2023-04-16T22:12:10.301Z,33.47
2023-04-16T22:14:46.295Z,35.17
2023-04-16T22:17:24.014Z,35.93
2023-04-16T22:19:53.458Z,36.93
2023-04-16T22:22:22.074Z,37.03
2023-04-16T22:24:50.247Z,38.07
2023-04-16T22:27:18.742Z,38.10
2023-04-16T22:29:48.374Z,40.07
2023-04-16T22:32:16.623Z,39.37
2023-04-16T22:34:44.788Z,38.77
2023-04-16T22:37:12.895Z,39.87
2023-04-16T22:39:41.126Z,40.97
2023-04-16T22:42:09.105Z,40.77
2023-04-16T22:44:37.701Z,41.60
2023-04-16T22:47:07.107Z,42.43
2023-04-16T22:49:35.229Z,41.60
2023-04-16T22:52:03.474Z,42.10
2023-04-16T22:54:31.964Z,40.40
2023-04-16T22:57:01.045Z,41.07
2023-04-16T22:59:29.054Z,40.10
2023-04-16T23:01:57.282Z,40.47
2023-04-16T23:04:26.801Z,40.20
2023-04-16T23:06:54.832Z,40.90
2023-04-16T23:09:23.389Z,41.73
2023-04-16T23:11:51.382Z,41.40
2023-04-16T23:14:19.576Z,40.83
2023-04-16T23:16:47.748Z,43.27
2023-04-16T23:19:15.853Z,41.90
2023-04-16T23:21:45.292Z,42.70
2023-04-16T23:24:13.348Z,43.27
2023-04-16T23:26:41.477Z,42.57
2023-04-16T23:29:09.823Z,41.70
2023-04-16T23:31:38.157Z,43.17
2023-04-16T23:34:06.192Z,43.33
2023-04-16T23:36:34.383Z,43.37
2023-04-16T23:39:03.857Z,44.77
2023-04-16T23:41:32.063Z,44.30
2023-04-16T23:44:00.137Z,44.83
2023-04-16T23:46:28.378Z,44.47
2023-04-16T23:48:56.431Z,44.97
2023-04-16T23:51:24.544Z,45.00
2023-04-16T23:53:52.660Z,45.57
2023-04-16T23:56:22.227Z,45.70
2023-04-16T23:58:50.244Z,45.83
